sensor_id;sensor_type;location;lat;lon;timestamp;P1;durP1;ratioP1;P2;durP2;ratioP2
15354;SDS011;7777;52.254;9.618;2023-09-19T00:01:07;5.43;;;1.00;;
15354;SDS011;7777;52.254;9.618;2023-09-19T00:03:34;1.77;;;1.27;;
15354;SDS011;7777;52.254;9.618;2023-09-19T00:06:04;1.57;;;1.17;;
15354;SDS011;7777;52.254;9.618;2023-09-19T00:08:32;6.60;;;1.70;;
15354;SDS011;7777;52.254;9.618;2023-09-19T00:10:58;3.97;;;1.57;;
15354;SDS011;7777;52.254;9.618;2023-09-19T00:13:30;3.80;;;1.47;;
15354;SDS011;7777;52.254;9.618;2023-09-19T00:15:57;4.10;;;1.50;;
15354;SDS011;7777;52.254;9.618;2023-09-19T00:18:24;3.30;;;1.60;;
15354;SDS011;7777;52.254;9.618;2023-09-19T00:20:57;3.13;;;1.20;;
15354;SDS011;7777;52.254;9.618;2023-09-19T00:23:24;3.20;;;2.00;;
15354;SDS011;7777;52.254;9.618;2023-09-19T00:25:50;2.73;;;1.50;;
15354;SDS011;7777;52.254;9.618;2023-09-19T00:28:16;4.60;;;1.83;;
15354;SDS011;7777;52.254;9.618;2023-09-19T00:30:43;3.30;;;2.23;;
15354;SDS011;7777;52.254;9.618;2023-09-19T00:33:10;4.00;;;1.70;;
15354;SDS011;7777;52.254;9.618;2023-09-19T00:35:46;2.90;;;1.83;;
15354;SDS011;7777;52.254;9.618;2023-09-19T00:38:16;5.43;;;1.73;;
15354;SDS011;7777;52.254;9.618;2023-09-19T00:40:47;5.23;;;2.20;;
15354;SDS011;7777;52.254;9.618;2023-09-19T00:43:17;5.63;;;2.27;;
15354;SDS011;7777;52.254;9.618;2023-09-19T00:45:44;5.87;;;2.40;;
15354;SDS011;7777;52.254;9.618;2023-09-19T00:48:13;8.50;;;2.17;;
15354;SDS011;7777;52.254;9.618;2023-09-19T00:50:42;3.70;;;2.40;;
15354;SDS011;7777;52.254;9.618;2023-09-19T00:53:09;9.50;;;2.43;;
15354;SDS011;7777;52.254;9.618;2023-09-19T00:55:39;4.43;;;2.00;;
15354;SDS011;7777;52.254;9.618;2023-09-19T00:58:09;3.30;;;1.90;;
15354;SDS011;7777;52.254;9.618;2023-09-19T01:00:36;3.87;;;2.13;;
15354;SDS011;7777;52.254;9.618;2023-09-19T01:03:03;5.23;;;2.70;;
15354;SDS011;7777;52.254;9.618;2023-09-19T01:05:31;3.23;;;2.20;;
15354;SDS011;7777;52.254;9.618;2023-09-19T01:07:58;7.60;;;3.13;;
15354;SDS011;7777;52.254;9.618;2023-09-19T01:10:24;7.00;;;2.30;;
15354;SDS011;7777;52.254;9.618;2023-09-19T01:30:26;5.27;;;3.20;;
15354;SDS011;7777;52.254;9.618;2023-09-19T01:32:57;7.97;;;3.30;;
15354;SDS011;7777;52.254;9.618;2023-09-19T01:35:24;8.23;;;3.07;;
15354;SDS011;7777;52.254;9.618;2023-09-19T01:37:51;6.23;;;2.60;;
15354;SDS011;7777;52.254;9.618;2023-09-19T01:40:18;4.43;;;2.53;;
15354;SDS011;7777;52.254;9.618;2023-09-19T01:42:53;9.10;;;2.90;;
15354;SDS011;7777;52.254;9.618;2023-09-19T01:45:37;13.27;;;3.17;;
15354;SDS011;7777;52.254;9.618;2023-09-19T01:48:43;10.53;;;3.20;;
15354;SDS011;7777;52.254;9.618;2023-09-19T01:54:49;10.63;;;2.67;;
15354;SDS011;7777;52.254;9.618;2023-09-19T01:57:23;9.03;;;3.17;;
15354;SDS011;7777;52.254;9.618;2023-09-19T01:59:58;7.67;;;3.60;;
15354;SDS011;7777;52.254;9.618;2023-09-19T02:02:36;7.47;;;3.67;;
15354;SDS011;7777;52.254;9.618;2023-09-19T02:05:05;10.33;;;3.23;;
15354;SDS011;7777;52.254;9.618;2023-09-19T02:07:31;5.77;;;3.20;;
15354;SDS011;7777;52.254;9.618;2023-09-19T02:09:57;9.27;;;3.33;;
15354;SDS011;7777;52.254;9.618;2023-09-19T02:12:28;3.83;;;2.73;;
15354;SDS011;7777;52.254;9.618;2023-09-19T02:14:55;6.77;;;3.17;;
15354;SDS011;7777;52.254;9.618;2023-09-19T02:17:22;10.17;;;3.33;;
15354;SDS011;7777;52.254;9.618;2023-09-19T02:19:51;7.40;;;3.33;;
15354;SDS011;7777;52.254;9.618;2023-09-19T02:22:21;8.43;;;3.73;;
15354;SDS011;7777;52.254;9.618;2023-09-19T02:24:47;11.23;;;3.90;;
15354;SDS011;7777;52.254;9.618;2023-09-19T02:27:13;7.87;;;3.77;;
15354;SDS011;7777;52.254;9.618;2023-09-19T02:29:41;8.30;;;3.47;;
15354;SDS011;7777;52.254;9.618;2023-09-19T02:32:07;8.07;;;4.30;;
15354;SDS011;7777;52.254;9.618;2023-09-19T02:34:34;9.47;;;4.13;;
15354;SDS011;7777;52.254;9.618;2023-09-19T02:37:02;10.37;;;3.73;;
15354;SDS011;7777;52.254;9.618;2023-09-19T02:39:30;7.67;;;3.90;;
15354;SDS011;7777;52.254;9.618;2023-09-19T02:41:57;7.73;;;3.27;;
15354;SDS011;7777;52.254;9.618;2023-09-19T02:44:22;11.40;;;4.07;;
15354;SDS011;7777;52.254;9.618;2023-09-19T02:46:49;12.47;;;4.33;;
15354;SDS011;7777;52.254;9.618;2023-09-19T02:49:15;5.73;;;3.43;;
15354;SDS011;7777;52.254;9.618;2023-09-19T02:51:42;7.90;;;3.73;;
15354;SDS011;7777;52.254;9.618;2023-09-19T02:54:09;6.83;;;3.60;;
15354;SDS011;7777;52.254;9.618;2023-09-19T02:56:35;9.47;;;3.87;;
15354;SDS011;7777;52.254;9.618;2023-09-19T02:59:02;10.43;;;3.77;;
15354;SDS011;7777;52.254;9.618;2023-09-19T03:01:28;9.97;;;3.83;;
15354;SDS011;7777;52.254;9.618;2023-09-19T03:03:57;12.17;;;4.33;;
15354;SDS011;7777;52.254;9.618;2023-09-19T03:06:23;8.70;;;4.20;;
15354;SDS011;7777;52.254;9.618;2023-09-19T03:08:49;8.00;;;3.10;;
15354;SDS011;7777;52.254;9.618;2023-09-19T03:11:16;9.13;;;3.30;;
15354;SDS011;7777;52.254;9.618;2023-09-19T03:13:50;8.93;;;3.30;;
15354;SDS011;7777;52.254;9.618;2023-09-19T03:16:17;6.97;;;3.07;;
15354;SDS011;7777;52.254;9.618;2023-09-19T03:18:44;6.40;;;2.83;;
15354;SDS011;7777;52.254;9.618;2023-09-19T03:21:10;7.97;;;2.67;;
15354;SDS011;7777;52.254;9.618;2023-09-19T03:23:35;7.60;;;2.83;;
15354;SDS011;7777;52.254;9.618;2023-09-19T03:26:03;9.27;;;3.30;;
15354;SDS011;7777;52.254;9.618;2023-09-19T03:28:32;8.50;;;3.10;;
15354;SDS011;7777;52.254;9.618;2023-09-19T03:30:59;9.50;;;3.07;;
15354;SDS011;7777;52.254;9.618;2023-09-19T03:33:30;9.80;;;3.40;;
15354;SDS011;7777;52.254;9.618;2023-09-19T03:35:59;7.87;;;2.80;;
15354;SDS011;7777;52.254;9.618;2023-09-19T03:38:30;5.70;;;2.43;;
15354;SDS011;7777;52.254;9.618;2023-09-19T03:40:57;6.93;;;2.67;;
15354;SDS011;7777;52.254;9.618;2023-09-19T03:43:23;9.87;;;3.10;;
15354;SDS011;7777;52.254;9.618;2023-09-19T03:45:48;8.63;;;2.90;;
15354;SDS011;7777;52.254;9.618;2023-09-19T03:48:15;9.07;;;3.87;;
15354;SDS011;7777;52.254;9.618;2023-09-19T03:50:42;7.37;;;3.40;;
15354;SDS011;7777;52.254;9.618;2023-09-19T03:53:09;8.07;;;3.47;;
15354;SDS011;7777;52.254;9.618;2023-09-19T03:55:35;10.77;;;3.60;;
15354;SDS011;7777;52.254;9.618;2023-09-19T03:58:01;9.47;;;3.50;;
15354;SDS011;7777;52.254;9.618;2023-09-19T04:00:27;6.50;;;3.37;;
15354;SDS011;7777;52.254;9.618;2023-09-19T04:02:54;7.60;;;3.10;;
15354;SDS011;7777;52.254;9.618;2023-09-19T04:05:21;7.10;;;3.60;;
15354;SDS011;7777;52.254;9.618;2023-09-19T04:07:48;6.73;;;3.03;;
15354;SDS011;7777;52.254;9.618;2023-09-19T04:10:15;7.63;;;3.67;;
15354;SDS011;7777;52.254;9.618;2023-09-19T04:12:50;9.17;;;3.93;;
15354;SDS011;7777;52.254;9.618;2023-09-19T04:15:19;7.87;;;3.80;;
15354;SDS011;7777;52.254;9.618;2023-09-19T04:17:47;10.37;;;3.80;;
15354;SDS011;7777;52.254;9.618;2023-09-19T04:20:14;10.13;;;4.27;;
15354;SDS011;7777;52.254;9.618;2023-09-19T04:22:40;9.53;;;3.80;;
15354;SDS011;7777;52.254;9.618;2023-09-19T04:25:06;9.47;;;4.00;;
15354;SDS011;7777;52.254;9.618;2023-09-19T04:27:33;8.87;;;4.00;;
15354;SDS011;7777;52.254;9.618;2023-09-19T04:29:59;10.17;;;4.40;;
15354;SDS011;7777;52.254;9.618;2023-09-19T04:32:33;8.03;;;4.07;;
15354;SDS011;7777;52.254;9.618;2023-09-19T04:35:00;12.30;;;4.73;;
15354;SDS011;7777;52.254;9.618;2023-09-19T04:37:30;11.67;;;4.30;;
15354;SDS011;7777;52.254;9.618;2023-09-19T04:39:56;9.03;;;4.70;;
15354;SDS011;7777;52.254;9.618;2023-09-19T04:42:22;8.60;;;4.50;;
15354;SDS011;7777;52.254;9.618;2023-09-19T04:44:49;6.40;;;3.63;;
15354;SDS011;7777;52.254;9.618;2023-09-19T04:47:18;8.73;;;3.93;;
15354;SDS011;7777;52.254;9.618;2023-09-19T04:49:44;7.73;;;4.10;;
15354;SDS011;7777;52.254;9.618;2023-09-19T04:52:10;9.43;;;4.17;;
15354;SDS011;7777;52.254;9.618;2023-09-19T04:54:35;12.30;;;4.30;;
15354;SDS011;7777;52.254;9.618;2023-09-19T04:57:01;6.77;;;3.77;;
15354;SDS011;7777;52.254;9.618;2023-09-19T04:59:27;10.83;;;4.47;;
15354;SDS011;7777;52.254;9.618;2023-09-19T05:01:53;11.50;;;4.57;;
15354;SDS011;7777;52.254;9.618;2023-09-19T05:04:19;10.83;;;4.63;;
15354;SDS011;7777;52.254;9.618;2023-09-19T05:06:44;11.83;;;4.60;;
15354;SDS011;7777;52.254;9.618;2023-09-19T05:09:10;11.03;;;4.33;;
15354;SDS011;7777;52.254;9.618;2023-09-19T05:11:36;12.47;;;4.47;;
15354;SDS011;7777;52.254;9.618;2023-09-19T05:14:03;8.60;;;4.20;;
15354;SDS011;7777;52.254;9.618;2023-09-19T05:16:29;8.60;;;3.80;;
15354;SDS011;7777;52.254;9.618;2023-09-19T05:18:59;10.90;;;4.93;;
15354;SDS011;7777;52.254;9.618;2023-09-19T05:21:25;12.83;;;4.63;;
15354;SDS011;7777;52.254;9.618;2023-09-19T05:23:53;10.03;;;4.27;;
15354;SDS011;7777;52.254;9.618;2023-09-19T05:26:20;8.17;;;4.10;;
15354;SDS011;7777;52.254;9.618;2023-09-19T05:28:46;10.43;;;4.47;;
15354;SDS011;7777;52.254;9.618;2023-09-19T05:31:13;12.90;;;4.17;;
15354;SDS011;7777;52.254;9.618;2023-09-19T05:33:40;12.47;;;4.60;;
15354;SDS011;7777;52.254;9.618;2023-09-19T05:36:06;10.43;;;3.97;;
15354;SDS011;7777;52.254;9.618;2023-09-19T05:38:34;12.10;;;4.57;;
15354;SDS011;7777;52.254;9.618;2023-09-19T05:41:00;12.27;;;4.60;;
15354;SDS011;7777;52.254;9.618;2023-09-19T05:43:27;13.10;;;4.70;;
15354;SDS011;7777;52.254;9.618;2023-09-19T05:45:52;13.27;;;4.60;;
15354;SDS011;7777;52.254;9.618;2023-09-19T05:48:21;11.70;;;4.73;;
15354;SDS011;7777;52.254;9.618;2023-09-19T05:50:47;8.77;;;4.23;;
15354;SDS011;7777;52.254;9.618;2023-09-19T05:53:14;9.03;;;3.87;;
15354;SDS011;7777;52.254;9.618;2023-09-19T05:55:40;12.77;;;4.27;;
15354;SDS011;7777;52.254;9.618;2023-09-19T05:58:06;8.77;;;3.80;;
15354;SDS011;7777;52.254;9.618;2023-09-19T06:00:33;7.07;;;3.63;;
15354;SDS011;7777;52.254;9.618;2023-09-19T06:02:59;8.20;;;4.03;;
15354;SDS011;7777;52.254;9.618;2023-09-19T06:05:25;10.07;;;3.83;;
15354;SDS011;7777;52.254;9.618;2023-09-19T06:07:52;9.90;;;3.97;;
15354;SDS011;7777;52.254;9.618;2023-09-19T06:10:19;13.53;;;4.03;;
15354;SDS011;7777;52.254;9.618;2023-09-19T06:12:48;15.30;;;4.90;;
15354;SDS011;7777;52.254;9.618;2023-09-19T06:15:14;13.47;;;3.93;;
15354;SDS011;7777;52.254;9.618;2023-09-19T06:17:50;8.43;;;3.30;;
15354;SDS011;7777;52.254;9.618;2023-09-19T06:20:23;11.67;;;4.37;;
15354;SDS011;7777;52.254;9.618;2023-09-19T06:22:50;11.60;;;4.03;;
15354;SDS011;7777;52.254;9.618;2023-09-19T06:25:16;9.30;;;4.13;;
15354;SDS011;7777;52.254;9.618;2023-09-19T06:27:49;9.10;;;4.13;;
15354;SDS011;7777;52.254;9.618;2023-09-19T06:30:21;11.33;;;4.20;;
15354;SDS011;7777;52.254;9.618;2023-09-19T06:32:57;9.60;;;3.67;;
15354;SDS011;7777;52.254;9.618;2023-09-19T06:35:24;14.07;;;4.10;;
15354;SDS011;7777;52.254;9.618;2023-09-19T06:37:54;12.23;;;4.37;;
15354;SDS011;7777;52.254;9.618;2023-09-19T06:40:22;11.00;;;3.90;;
15354;SDS011;7777;52.254;9.618;2023-09-19T06:42:50;15.57;;;4.73;;
15354;SDS011;7777;52.254;9.618;2023-09-19T06:45:17;14.00;;;4.00;;
15354;SDS011;7777;52.254;9.618;2023-09-19T06:47:50;12.20;;;3.63;;
15354;SDS011;7777;52.254;9.618;2023-09-19T06:50:17;16.73;;;4.47;;
15354;SDS011;7777;52.254;9.618;2023-09-19T06:52:47;17.77;;;3.60;;
15354;SDS011;7777;52.254;9.618;2023-09-19T06:55:15;7.17;;;3.27;;
15354;SDS011;7777;52.254;9.618;2023-09-19T06:57:42;8.83;;;3.13;;
15354;SDS011;7777;52.254;9.618;2023-09-19T07:00:11;9.17;;;3.57;;
15354;SDS011;7777;52.254;9.618;2023-09-19T07:02:44;10.20;;;3.43;;
15354;SDS011;7777;52.254;9.618;2023-09-19T07:05:10;10.13;;;2.73;;
15354;SDS011;7777;52.254;9.618;2023-09-19T07:07:36;10.23;;;3.10;;
15354;SDS011;7777;52.254;9.618;2023-09-19T07:10:02;9.03;;;2.97;;
15354;SDS011;7777;52.254;9.618;2023-09-19T07:12:31;10.10;;;3.07;;
15354;SDS011;7777;52.254;9.618;2023-09-19T07:15:00;10.20;;;2.93;;
15354;SDS011;7777;52.254;9.618;2023-09-19T07:17:26;10.43;;;2.43;;
15354;SDS011;7777;52.254;9.618;2023-09-19T07:19:52;8.93;;;2.70;;
15354;SDS011;7777;52.254;9.618;2023-09-19T07:22:18;7.63;;;2.53;;
15354;SDS011;7777;52.254;9.618;2023-09-19T07:24:44;12.33;;;3.13;;
15354;SDS011;7777;52.254;9.618;2023-09-19T07:27:09;10.00;;;2.77;;
15354;SDS011;7777;52.254;9.618;2023-09-19T07:29:35;7.93;;;2.33;;
15354;SDS011;7777;52.254;9.618;2023-09-19T07:32:01;12.43;;;3.10;;
15354;SDS011;7777;52.254;9.618;2023-09-19T07:34:26;12.73;;;2.87;;
15354;SDS011;7777;52.254;9.618;2023-09-19T07:36:52;7.73;;;2.27;;
15354;SDS011;7777;52.254;9.618;2023-09-19T07:39:18;7.40;;;2.37;;
15354;SDS011;7777;52.254;9.618;2023-09-19T07:41:43;8.40;;;2.40;;
15354;SDS011;7777;52.254;9.618;2023-09-19T07:44:09;7.03;;;2.10;;
15354;SDS011;7777;52.254;9.618;2023-09-19T07:46:35;12.43;;;2.87;;
15354;SDS011;7777;52.254;9.618;2023-09-19T07:49:01;10.37;;;2.67;;
15354;SDS011;7777;52.254;9.618;2023-09-19T07:51:26;11.73;;;2.37;;
15354;SDS011;7777;52.254;9.618;2023-09-19T07:53:52;14.00;;;3.10;;
15354;SDS011;7777;52.254;9.618;2023-09-19T07:56:20;8.50;;;2.27;;
15354;SDS011;7777;52.254;9.618;2023-09-19T07:58:47;10.83;;;2.67;;
15354;SDS011;7777;52.254;9.618;2023-09-19T08:01:13;12.23;;;3.20;;
15354;SDS011;7777;52.254;9.618;2023-09-19T08:03:39;13.23;;;2.93;;
15354;SDS011;7777;52.254;9.618;2023-09-19T08:06:07;11.20;;;2.73;;
15354;SDS011;7777;52.254;9.618;2023-09-19T08:08:33;10.33;;;2.40;;
15354;SDS011;7777;52.254;9.618;2023-09-19T08:11:03;11.20;;;3.03;;
15354;SDS011;7777;52.254;9.618;2023-09-19T08:13:37;10.33;;;2.77;;
15354;SDS011;7777;52.254;9.618;2023-09-19T08:16:11;9.80;;;2.70;;
15354;SDS011;7777;52.254;9.618;2023-09-19T08:18:40;11.63;;;2.37;;
15354;SDS011;7777;52.254;9.618;2023-09-19T08:21:07;10.43;;;2.03;;
15354;SDS011;7777;52.254;9.618;2023-09-19T08:23:36;10.53;;;2.23;;
15354;SDS011;7777;52.254;9.618;2023-09-19T08:26:05;9.03;;;2.10;;
15354;SDS011;7777;52.254;9.618;2023-09-19T08:28:33;16.57;;;2.83;;
15354;SDS011;7777;52.254;9.618;2023-09-19T08:31:03;8.53;;;2.17;;
15354;SDS011;7777;52.254;9.618;2023-09-19T08:33:34;8.37;;;2.17;;
15354;SDS011;7777;52.254;9.618;2023-09-19T08:36:01;8.23;;;2.93;;
15354;SDS011;7777;52.254;9.618;2023-09-19T08:38:31;14.80;;;2.73;;
15354;SDS011;7777;52.254;9.618;2023-09-19T08:41:05;8.87;;;2.67;;
15354;SDS011;7777;52.254;9.618;2023-09-19T08:43:32;9.27;;;2.20;;
15354;SDS011;7777;52.254;9.618;2023-09-19T08:48:31;13.43;;;2.93;;
15354;SDS011;7777;52.254;9.618;2023-09-19T08:51:18;9.37;;;2.50;;
15354;SDS011;7777;52.254;9.618;2023-09-19T08:56:31;5.13;;;2.00;;
15354;SDS011;7777;52.254;9.618;2023-09-19T08:59:05;9.10;;;2.17;;
15354;SDS011;7777;52.254;9.618;2023-09-19T09:01:34;6.20;;;2.17;;
15354;SDS011;7777;52.254;9.618;2023-09-19T09:04:01;6.50;;;2.13;;
15354;SDS011;7777;52.254;9.618;2023-09-19T09:06:27;10.47;;;2.30;;
15354;SDS011;7777;52.254;9.618;2023-09-19T09:08:54;10.50;;;2.43;;
15354;SDS011;7777;52.254;9.618;2023-09-19T09:11:21;6.30;;;2.00;;
15354;SDS011;7777;52.254;9.618;2023-09-19T09:13:50;6.10;;;2.27;;
15354;SDS011;7777;52.254;9.618;2023-09-19T09:16:15;6.80;;;2.23;;
15354;SDS011;7777;52.254;9.618;2023-09-19T09:18:44;12.50;;;2.30;;
15354;SDS011;7777;52.254;9.618;2023-09-19T09:21:12;9.03;;;2.87;;
15354;SDS011;7777;52.254;9.618;2023-09-19T09:23:40;9.03;;;2.87;;
15354;SDS011;7777;52.254;9.618;2023-09-19T09:26:06;12.47;;;2.53;;
15354;SDS011;7777;52.254;9.618;2023-09-19T09:28:34;6.67;;;2.23;;
15354;SDS011;7777;52.254;9.618;2023-09-19T09:31:02;10.67;;;2.03;;
15354;SDS011;7777;52.254;9.618;2023-09-19T09:33:32;8.77;;;2.43;;
15354;SDS011;7777;52.254;9.618;2023-09-19T09:35:59;7.97;;;2.07;;
15354;SDS011;7777;52.254;9.618;2023-09-19T09:38:49;11.37;;;3.00;;
15354;SDS011;7777;52.254;9.618;2023-09-19T09:41:15;11.23;;;2.60;;
15354;SDS011;7777;52.254;9.618;2023-09-19T09:43:52;13.13;;;2.40;;
15354;SDS011;7777;52.254;9.618;2023-09-19T09:46:19;8.30;;;2.37;;
15354;SDS011;7777;52.254;9.618;2023-09-19T09:48:47;14.30;;;2.60;;
15354;SDS011;7777;52.254;9.618;2023-09-19T09:51:38;11.83;;;2.80;;
15354;SDS011;7777;52.254;9.618;2023-09-19T09:54:11;10.23;;;2.37;;
15354;SDS011;7777;52.254;9.618;2023-09-19T09:56:52;10.40;;;2.83;;
15354;SDS011;7777;52.254;9.618;2023-09-19T10:02:18;7.80;;;2.33;;
15354;SDS011;7777;52.254;9.618;2023-09-19T10:05:03;13.63;;;3.13;;
15354;SDS011;7777;52.254;9.618;2023-09-19T10:07:46;8.27;;;2.53;;
15354;SDS011;7777;52.254;9.618;2023-09-19T10:10:30;12.10;;;2.80;;
15354;SDS011;7777;52.254;9.618;2023-09-19T10:13:08;7.97;;;2.63;;
15354;SDS011;7777;52.254;9.618;2023-09-19T10:15:43;9.20;;;2.70;;
15354;SDS011;7777;52.254;9.618;2023-09-19T10:18:25;8.33;;;2.90;;
15354;SDS011;7777;52.254;9.618;2023-09-19T10:20:54;9.03;;;2.43;;
15354;SDS011;7777;52.254;9.618;2023-09-19T10:23:21;9.83;;;2.47;;
15354;SDS011;7777;52.254;9.618;2023-09-19T10:25:52;7.93;;;2.27;;
15354;SDS011;7777;52.254;9.618;2023-09-19T10:28:19;4.67;;;2.10;;
15354;SDS011;7777;52.254;9.618;2023-09-19T10:30:52;6.80;;;2.00;;
15354;SDS011;7777;52.254;9.618;2023-09-19T10:33:19;9.60;;;2.50;;
15354;SDS011;7777;52.254;9.618;2023-09-19T10:35:52;7.13;;;2.70;;
15354;SDS011;7777;52.254;9.618;2023-09-19T10:38:24;9.17;;;2.27;;
15354;SDS011;7777;52.254;9.618;2023-09-19T10:40:55;6.80;;;1.93;;
15354;SDS011;7777;52.254;9.618;2023-09-19T10:43:31;9.40;;;2.77;;
15354;SDS011;7777;52.254;9.618;2023-09-19T10:46:01;10.20;;;3.00;;
15354;SDS011;7777;52.254;9.618;2023-09-19T10:48:32;6.23;;;2.13;;
15354;SDS011;7777;52.254;9.618;2023-09-19T10:51:01;10.43;;;2.87;;
15354;SDS011;7777;52.254;9.618;2023-09-19T10:53:49;7.10;;;2.13;;
15354;SDS011;7777;52.254;9.618;2023-09-19T10:56:21;9.50;;;2.80;;
15354;SDS011;7777;52.254;9.618;2023-09-19T10:59:07;7.63;;;2.33;;
15354;SDS011;7777;52.254;9.618;2023-09-19T11:01:48;6.17;;;2.40;;
15354;SDS011;7777;52.254;9.618;2023-09-19T11:07:05;7.57;;;2.97;;
15354;SDS011;7777;52.254;9.618;2023-09-19T11:15:10;8.83;;;2.27;;
15354;SDS011;7777;52.254;9.618;2023-09-19T11:26:47;9.60;;;2.93;;
15354;SDS011;7777;52.254;9.618;2023-09-19T11:31:56;9.90;;;2.47;;
15354;SDS011;7777;52.254;9.618;2023-09-19T11:37:02;7.80;;;2.83;;
15354;SDS011;7777;52.254;9.618;2023-09-19T11:39:36;10.10;;;2.60;;
15354;SDS011;7777;52.254;9.618;2023-09-19T11:45:06;12.43;;;2.87;;
15354;SDS011;7777;52.254;9.618;2023-09-19T11:47:32;7.33;;;2.40;;
15354;SDS011;7777;52.254;9.618;2023-09-19T11:50:01;8.30;;;2.67;;
15354;SDS011;7777;52.254;9.618;2023-09-19T11:52:27;5.70;;;2.10;;
15354;SDS011;7777;52.254;9.618;2023-09-19T11:54:59;5.20;;;2.60;;
15354;SDS011;7777;52.254;9.618;2023-09-19T11:57:27;5.60;;;2.30;;
15354;SDS011;7777;52.254;9.618;2023-09-19T11:59:55;5.30;;;2.03;;
15354;SDS011;7777;52.254;9.618;2023-09-19T12:02:45;7.03;;;2.80;;
15354;SDS011;7777;52.254;9.618;2023-09-19T12:05:12;9.07;;;2.53;;
15354;SDS011;7777;52.254;9.618;2023-09-19T12:07:44;6.67;;;2.80;;
15354;SDS011;7777;52.254;9.618;2023-09-19T12:10:13;11.60;;;2.23;;
15354;SDS011;7777;52.254;9.618;2023-09-19T12:12:45;10.50;;;2.93;;
15354;SDS011;7777;52.254;9.618;2023-09-19T12:15:26;5.73;;;2.03;;
15354;SDS011;7777;52.254;9.618;2023-09-19T12:17:59;10.00;;;2.60;;
15354;SDS011;7777;52.254;9.618;2023-09-19T12:20:25;6.80;;;2.70;;
15354;SDS011;7777;52.254;9.618;2023-09-19T12:23:15;7.63;;;2.40;;
15354;SDS011;7777;52.254;9.618;2023-09-19T12:25:44;7.67;;;2.60;;
15354;SDS011;7777;52.254;9.618;2023-09-19T12:28:17;6.33;;;2.97;;
15354;SDS011;7777;52.254;9.618;2023-09-19T12:30:43;11.13;;;3.17;;
15354;SDS011;7777;52.254;9.618;2023-09-19T12:33:18;11.37;;;2.47;;
15354;SDS011;7777;52.254;9.618;2023-09-19T12:35:46;11.83;;;2.90;;
15354;SDS011;7777;52.254;9.618;2023-09-19T12:38:22;10.00;;;2.90;;
15354;SDS011;7777;52.254;9.618;2023-09-19T12:41:00;9.67;;;3.13;;
15354;SDS011;7777;52.254;9.618;2023-09-19T12:43:29;9.30;;;2.53;;
15354;SDS011;7777;52.254;9.618;2023-09-19T12:45:58;8.37;;;2.57;;
15354;SDS011;7777;52.254;9.618;2023-09-19T12:48:25;11.37;;;2.93;;
15354;SDS011;7777;52.254;9.618;2023-09-19T12:53:32;10.80;;;2.90;;
15354;SDS011;7777;52.254;9.618;2023-09-19T12:56:02;8.63;;;2.80;;
15354;SDS011;7777;52.254;9.618;2023-09-19T12:58:33;7.77;;;2.93;;
15354;SDS011;7777;52.254;9.618;2023-09-19T13:01:00;4.80;;;1.97;;
15354;SDS011;7777;52.254;9.618;2023-09-19T13:03:30;11.43;;;3.30;;
15354;SDS011;7777;52.254;9.618;2023-09-19T13:06:01;7.83;;;2.97;;
15354;SDS011;7777;52.254;9.618;2023-09-19T13:08:30;8.47;;;2.67;;
15354;SDS011;7777;52.254;9.618;2023-09-19T13:11:02;7.93;;;2.57;;
15354;SDS011;7777;52.254;9.618;2023-09-19T13:13:42;7.70;;;2.73;;
15354;SDS011;7777;52.254;9.618;2023-09-19T13:16:19;10.30;;;2.30;;
15354;SDS011;7777;52.254;9.618;2023-09-19T13:18:51;8.53;;;2.53;;
15354;SDS011;7777;52.254;9.618;2023-09-19T13:21:54;6.60;;;3.13;;
15354;SDS011;7777;52.254;9.618;2023-09-19T13:24:19;5.80;;;2.30;;
15354;SDS011;7777;52.254;9.618;2023-09-19T13:26:48;7.70;;;2.57;;
15354;SDS011;7777;52.254;9.618;2023-09-19T13:29:14;6.27;;;2.57;;
15354;SDS011;7777;52.254;9.618;2023-09-19T13:31:49;6.73;;;2.20;;
15354;SDS011;7777;52.254;9.618;2023-09-19T13:34:18;8.80;;;2.10;;
15354;SDS011;7777;52.254;9.618;2023-09-19T13:36:44;9.27;;;2.77;;
15354;SDS011;7777;52.254;9.618;2023-09-19T13:39:14;6.27;;;2.57;;
15354;SDS011;7777;52.254;9.618;2023-09-19T13:41:41;9.33;;;2.53;;
15354;SDS011;7777;52.254;9.618;2023-09-19T13:44:10;5.57;;;2.20;;
15354;SDS011;7777;52.254;9.618;2023-09-19T13:46:36;5.97;;;2.37;;
15354;SDS011;7777;52.254;9.618;2023-09-19T13:49:02;7.47;;;2.50;;
15354;SDS011;7777;52.254;9.618;2023-09-19T13:51:30;7.07;;;2.60;;
15354;SDS011;7777;52.254;9.618;2023-09-19T13:53:57;6.37;;;2.03;;
15354;SDS011;7777;52.254;9.618;2023-09-19T13:56:24;20.87;;;2.83;;
15354;SDS011;7777;52.254;9.618;2023-09-19T13:58:53;11.03;;;2.47;;
15354;SDS011;7777;52.254;9.618;2023-09-19T14:01:22;9.00;;;2.57;;
15354;SDS011;7777;52.254;9.618;2023-09-19T14:03:48;9.60;;;2.83;;
15354;SDS011;7777;52.254;9.618;2023-09-19T14:06:16;10.87;;;3.13;;
15354;SDS011;7777;52.254;9.618;2023-09-19T14:08:42;7.53;;;2.47;;
15354;SDS011;7777;52.254;9.618;2023-09-19T14:11:12;7.87;;;2.23;;
15354;SDS011;7777;52.254;9.618;2023-09-19T14:13:39;15.10;;;2.90;;
15354;SDS011;7777;52.254;9.618;2023-09-19T14:16:08;7.43;;;2.20;;
15354;SDS011;7777;52.254;9.618;2023-09-19T14:18:34;6.43;;;2.60;;
15354;SDS011;7777;52.254;9.618;2023-09-19T14:21:04;7.97;;;2.73;;
15354;SDS011;7777;52.254;9.618;2023-09-19T14:23:39;7.27;;;1.80;;
15354;SDS011;7777;52.254;9.618;2023-09-19T14:26:07;7.60;;;2.87;;
15354;SDS011;7777;52.254;9.618;2023-09-19T14:28:34;5.20;;;2.00;;
15354;SDS011;7777;52.254;9.618;2023-09-19T14:31:03;5.67;;;2.10;;
15354;SDS011;7777;52.254;9.618;2023-09-19T14:33:33;4.87;;;2.40;;
15354;SDS011;7777;52.254;9.618;2023-09-19T14:36:03;10.83;;;2.97;;
15354;SDS011;7777;52.254;9.618;2023-09-19T14:38:34;5.87;;;2.43;;
15354;SDS011;7777;52.254;9.618;2023-09-19T14:41:02;4.87;;;2.23;;
15354;SDS011;7777;52.254;9.618;2023-09-19T14:43:29;6.20;;;2.37;;
15354;SDS011;7777;52.254;9.618;2023-09-19T14:45:58;6.07;;;2.17;;
15354;SDS011;7777;52.254;9.618;2023-09-19T14:48:35;7.97;;;2.03;;
15354;SDS011;7777;52.254;9.618;2023-09-19T14:51:02;4.37;;;1.90;;
15354;SDS011;7777;52.254;9.618;2023-09-19T14:53:29;5.47;;;2.00;;
15354;SDS011;7777;52.254;9.618;2023-09-19T14:56:02;8.53;;;2.60;;
15354;SDS011;7777;52.254;9.618;2023-09-19T14:58:32;6.77;;;2.20;;
15354;SDS011;7777;52.254;9.618;2023-09-19T15:01:11;9.43;;;2.67;;
15354;SDS011;7777;52.254;9.618;2023-09-19T15:03:39;6.00;;;2.20;;
15354;SDS011;7777;52.254;9.618;2023-09-19T15:06:07;4.47;;;1.93;;
15354;SDS011;7777;52.254;9.618;2023-09-19T15:08:37;7.87;;;2.10;;
15354;SDS011;7777;52.254;9.618;2023-09-19T15:11:07;7.67;;;2.43;;
15354;SDS011;7777;52.254;9.618;2023-09-19T15:13:33;7.90;;;2.47;;
15354;SDS011;7777;52.254;9.618;2023-09-19T15:16:03;8.87;;;2.57;;
15354;SDS011;7777;52.254;9.618;2023-09-19T15:18:35;5.70;;;2.20;;
15354;SDS011;7777;52.254;9.618;2023-09-19T15:21:20;6.40;;;2.23;;
15354;SDS011;7777;52.254;9.618;2023-09-19T15:23:46;5.07;;;2.10;;
15354;SDS011;7777;52.254;9.618;2023-09-19T15:26:13;4.73;;;1.70;;
15354;SDS011;7777;52.254;9.618;2023-09-19T15:28:45;11.13;;;2.20;;
15354;SDS011;7777;52.254;9.618;2023-09-19T15:31:11;8.23;;;2.10;;
15354;SDS011;7777;52.254;9.618;2023-09-19T15:33:38;4.77;;;1.83;;
15354;SDS011;7777;52.254;9.618;2023-09-19T15:38:31;4.77;;;2.00;;
15354;SDS011;7777;52.254;9.618;2023-09-19T15:41:21;11.90;;;2.20;;
15354;SDS011;7777;52.254;9.618;2023-09-19T15:43:48;4.73;;;1.60;;
15354;SDS011;7777;52.254;9.618;2023-09-19T15:46:13;5.47;;;2.17;;
15354;SDS011;7777;52.254;9.618;2023-09-19T15:48:40;4.70;;;2.00;;
15354;SDS011;7777;52.254;9.618;2023-09-19T15:51:06;6.20;;;1.97;;
15354;SDS011;7777;52.254;9.618;2023-09-19T15:53:41;9.00;;;2.17;;
15354;SDS011;7777;52.254;9.618;2023-09-19T15:56:10;3.87;;;1.43;;
15354;SDS011;7777;52.254;9.618;2023-09-19T15:58:37;8.00;;;1.90;;
15354;SDS011;7777;52.254;9.618;2023-09-19T16:01:05;8.00;;;1.97;;
15354;SDS011;7777;52.254;9.618;2023-09-19T16:03:35;4.13;;;1.87;;
15354;SDS011;7777;52.254;9.618;2023-09-19T16:06:07;6.63;;;1.80;;
15354;SDS011;7777;52.254;9.618;2023-09-19T16:08:35;6.60;;;2.07;;
15354;SDS011;7777;52.254;9.618;2023-09-19T16:11:04;5.10;;;2.27;;